sensor_id;sensor_type;location;lat;lon;timestamp;temperature;humidity
15384;DHT22;7790;53.022;12.968;2023-07-09T00:00:34;21.00;50.60
15384;DHT22;7790;53.022;12.968;2023-07-09T00:04:35;21.00;50.60
15384;DHT22;7790;53.022;12.968;2023-07-09T00:08:39;21.00;50.70
15384;DHT22;7790;53.022;12.968;2023-07-09T00:12:42;21.00;50.70
15384;DHT22;7790;53.022;12.968;2023-07-09T00:16:44;21.00;50.70
15384;DHT22;7790;53.022;12.968;2023-07-09T00:20:46;20.90;50.70
15384;DHT22;7790;53.022;12.968;2023-07-09T00:24:51;20.90;50.70
15384;DHT22;7790;53.022;12.968;2023-07-09T00:28:52;20.90;50.60
15384;DHT22;7790;53.022;12.968;2023-07-09T00:32:53;20.90;50.60
15384;DHT22;7790;53.022;12.968;2023-07-09T00:36:54;20.90;50.60
15384;DHT22;7790;53.022;12.968;2023-07-09T00:45:00;20.90;50.60
15384;DHT22;7790;53.022;12.968;2023-07-09T00:49:03;20.90;50.50
15384;DHT22;7790;53.022;12.968;2023-07-09T00:53:29;20.90;50.60
15384;DHT22;7790;53.022;12.968;2023-07-09T00:57:32;20.80;50.60
15384;DHT22;7790;53.022;12.968;2023-07-09T01:01:33;20.80;50.60
15384;DHT22;7790;53.022;12.968;2023-07-09T01:05:34;20.80;50.50
15384;DHT22;7790;53.022;12.968;2023-07-09T01:09:35;20.80;50.50
15384;DHT22;7790;53.022;12.968;2023-07-09T01:13:41;20.80;50.60
15384;DHT22;7790;53.022;12.968;2023-07-09T01:17:45;20.80;50.60
15384;DHT22;7790;53.022;12.968;2023-07-09T01:21:46;20.70;50.70
15384;DHT22;7790;53.022;12.968;2023-07-09T01:25:50;20.70;50.60
15384;DHT22;7790;53.022;12.968;2023-07-09T01:29:56;20.80;50.70
15384;DHT22;7790;53.022;12.968;2023-07-09T01:33:58;20.80;50.80
15384;DHT22;7790;53.022;12.968;2023-07-09T01:37:59;20.70;50.70
15384;DHT22;7790;53.022;12.968;2023-07-09T01:41:59;20.70;50.70
15384;DHT22;7790;53.022;12.968;2023-07-09T01:46:00;20.70;50.80
15384;DHT22;7790;53.022;12.968;2023-07-09T01:50:01;20.70;50.80
15384;DHT22;7790;53.022;12.968;2023-07-09T01:54:03;20.70;50.90
15384;DHT22;7790;53.022;12.968;2023-07-09T01:58:03;20.70;50.90
15384;DHT22;7790;53.022;12.968;2023-07-09T02:02:11;20.60;50.90
15384;DHT22;7790;53.022;12.968;2023-07-09T02:06:19;20.60;50.90
15384;DHT22;7790;53.022;12.968;2023-07-09T02:10:20;20.60;50.90
15384;DHT22;7790;53.022;12.968;2023-07-09T02:14:21;20.60;50.70
15384;DHT22;7790;53.022;12.968;2023-07-09T02:18:22;20.60;50.60
15384;DHT22;7790;53.022;12.968;2023-07-09T02:22:23;20.60;50.60
15384;DHT22;7790;53.022;12.968;2023-07-09T02:26:23;20.60;50.70
15384;DHT22;7790;53.022;12.968;2023-07-09T02:30:24;20.60;51.00
15384;DHT22;7790;53.022;12.968;2023-07-09T02:34:26;20.60;50.70
15384;DHT22;7790;53.022;12.968;2023-07-09T02:38:27;20.50;50.70
15384;DHT22;7790;53.022;12.968;2023-07-09T02:42:28;20.50;50.60
15384;DHT22;7790;53.022;12.968;2023-07-09T02:46:29;20.50;50.60
15384;DHT22;7790;53.022;12.968;2023-07-09T02:50:30;20.50;50.60
15384;DHT22;7790;53.022;12.968;2023-07-09T02:54:31;20.50;50.60
15384;DHT22;7790;53.022;12.968;2023-07-09T02:58:32;20.50;50.70
15384;DHT22;7790;53.022;12.968;2023-07-09T03:02:34;20.50;50.60
15384;DHT22;7790;53.022;12.968;2023-07-09T03:06:36;20.50;50.70
15384;DHT22;7790;53.022;12.968;2023-07-09T03:10:43;20.40;50.70
15384;DHT22;7790;53.022;12.968;2023-07-09T03:14:48;20.40;50.50
15384;DHT22;7790;53.022;12.968;2023-07-09T03:18:49;20.40;50.60
15384;DHT22;7790;53.022;12.968;2023-07-09T03:22:50;20.50;50.70
15384;DHT22;7790;53.022;12.968;2023-07-09T03:26:51;20.40;50.70
15384;DHT22;7790;53.022;12.968;2023-07-09T03:30:54;20.40;50.70
15384;DHT22;7790;53.022;12.968;2023-07-09T03:34:55;20.40;50.80
15384;DHT22;7790;53.022;12.968;2023-07-09T03:38:56;20.40;50.80
15384;DHT22;7790;53.022;12.968;2023-07-09T03:42:57;20.40;50.70
15384;DHT22;7790;53.022;12.968;2023-07-09T03:46:58;20.40;50.80
15384;DHT22;7790;53.022;12.968;2023-07-09T03:50:59;20.40;50.80
15384;DHT22;7790;53.022;12.968;2023-07-09T03:55:00;20.40;50.90
15384;DHT22;7790;53.022;12.968;2023-07-09T03:59:04;20.40;51.00
15384;DHT22;7790;53.022;12.968;2023-07-09T04:03:05;20.40;50.90
15384;DHT22;7790;53.022;12.968;2023-07-09T04:07:09;20.40;51.10
15384;DHT22;7790;53.022;12.968;2023-07-09T04:11:09;20.40;51.10
15384;DHT22;7790;53.022;12.968;2023-07-09T04:15:11;20.50;51.20
15384;DHT22;7790;53.022;12.968;2023-07-09T04:19:13;20.50;51.30
15384;DHT22;7790;53.022;12.968;2023-07-09T04:23:14;20.50;51.30
15384;DHT22;7790;53.022;12.968;2023-07-09T04:27:16;20.60;51.60
15384;DHT22;7790;53.022;12.968;2023-07-09T04:31:17;20.50;51.50
15384;DHT22;7790;53.022;12.968;2023-07-09T04:35:17;20.60;51.30
15384;DHT22;7790;53.022;12.968;2023-07-09T04:39:18;20.70;51.00
15384;DHT22;7790;53.022;12.968;2023-07-09T04:43:19;20.80;51.00
15384;DHT22;7790;53.022;12.968;2023-07-09T04:47:23;20.80;51.00
15384;DHT22;7790;53.022;12.968;2023-07-09T04:51:24;20.80;50.90
15384;DHT22;7790;53.022;12.968;2023-07-09T04:55:24;20.80;50.90
15384;DHT22;7790;53.022;12.968;2023-07-09T04:59:27;20.90;51.00
15384;DHT22;7790;53.022;12.968;2023-07-09T05:03:28;20.90;50.90
15384;DHT22;7790;53.022;12.968;2023-07-09T05:07:28;20.90;50.80
15384;DHT22;7790;53.022;12.968;2023-07-09T05:11:34;20.90;50.80
15384;DHT22;7790;53.022;12.968;2023-07-09T05:15:39;20.90;50.80
15384;DHT22;7790;53.022;12.968;2023-07-09T05:19:40;21.00;50.90
15384;DHT22;7790;53.022;12.968;2023-07-09T05:23:40;21.00;50.70
15384;DHT22;7790;53.022;12.968;2023-07-09T05:27:42;21.00;51.30
15384;DHT22;7790;53.022;12.968;2023-07-09T05:31:43;21.00;50.90
15384;DHT22;7790;53.022;12.968;2023-07-09T05:35:45;21.00;50.90
15384;DHT22;7790;53.022;12.968;2023-07-09T05:39:45;20.60;52.00
15384;DHT22;7790;53.022;12.968;2023-07-09T05:43:46;20.40;52.60
15384;DHT22;7790;53.022;12.968;2023-07-09T05:47:47;20.50;53.30
15384;DHT22;7790;53.022;12.968;2023-07-09T05:51:48;20.40;52.80
15384;DHT22;7790;53.022;12.968;2023-07-09T05:55:52;20.50;53.00
15384;DHT22;7790;53.022;12.968;2023-07-09T05:59:53;20.40;53.30
15384;DHT22;7790;53.022;12.968;2023-07-09T06:03:53;20.50;53.20
15384;DHT22;7790;53.022;12.968;2023-07-09T06:07:54;20.60;53.10
15384;DHT22;7790;53.022;12.968;2023-07-09T06:11:56;20.60;53.10
15384;DHT22;7790;53.022;12.968;2023-07-09T06:15:58;20.70;53.40
15384;DHT22;7790;53.022;12.968;2023-07-09T06:19:59;20.80;53.50
15384;DHT22;7790;53.022;12.968;2023-07-09T06:24:00;21.00;53.20
15384;DHT22;7790;53.022;12.968;2023-07-09T06:28:01;21.00;52.60
15384;DHT22;7790;53.022;12.968;2023-07-09T06:32:02;21.00;52.70
15384;DHT22;7790;53.022;12.968;2023-07-09T06:36:03;21.00;53.00
15384;DHT22;7790;53.022;12.968;2023-07-09T06:40:05;21.10;52.90
15384;DHT22;7790;53.022;12.968;2023-07-09T06:44:09;21.20;52.90
15384;DHT22;7790;53.022;12.968;2023-07-09T06:48:10;21.20;52.80
15384;DHT22;7790;53.022;12.968;2023-07-09T06:52:11;21.30;52.90
15384;DHT22;7790;53.022;12.968;2023-07-09T06:56:11;21.40;52.90
15384;DHT22;7790;53.022;12.968;2023-07-09T07:00:13;21.40;52.90
15384;DHT22;7790;53.022;12.968;2023-07-09T07:04:14;21.50;52.80
15384;DHT22;7790;53.022;12.968;2023-07-09T07:08:17;21.50;52.70
15384;DHT22;7790;53.022;12.968;2023-07-09T07:12:27;21.60;52.60
15384;DHT22;7790;53.022;12.968;2023-07-09T07:16:28;21.60;52.50
15384;DHT22;7790;53.022;12.968;2023-07-09T07:20:30;21.60;52.50
15384;DHT22;7790;53.022;12.968;2023-07-09T07:24:31;21.70;52.30
15384;DHT22;7790;53.022;12.968;2023-07-09T07:28:35;21.80;52.30
15384;DHT22;7790;53.022;12.968;2023-07-09T07:32:38;21.80;52.20
15384;DHT22;7790;53.022;12.968;2023-07-09T07:36:39;21.80;52.30
15384;DHT22;7790;53.022;12.968;2023-07-09T07:40:44;21.90;52.30
15384;DHT22;7790;53.022;12.968;2023-07-09T07:44:45;21.90;52.20
15384;DHT22;7790;53.022;12.968;2023-07-09T07:48:46;22.00;52.20
15384;DHT22;7790;53.022;12.968;2023-07-09T07:52:47;22.10;52.10
15384;DHT22;7790;53.022;12.968;2023-07-09T07:56:48;22.10;52.00
15384;DHT22;7790;53.022;12.968;2023-07-09T08:00:48;22.10;52.10
15384;DHT22;7790;53.022;12.968;2023-07-09T08:04:49;22.10;52.00
15384;DHT22;7790;53.022;12.968;2023-07-09T08:08:51;22.10;52.10
15384;DHT22;7790;53.022;12.968;2023-07-09T08:12:51;22.10;52.10
15384;DHT22;7790;53.022;12.968;2023-07-09T08:16:57;22.10;52.10
15384;DHT22;7790;53.022;12.968;2023-07-09T08:21:01;22.10;52.10
15384;DHT22;7790;53.022;12.968;2023-07-09T08:25:03;22.10;52.20
15384;DHT22;7790;53.022;12.968;2023-07-09T08:29:04;22.10;52.10
15384;DHT22;7790;53.022;12.968;2023-07-09T08:33:05;22.10;52.60
15384;DHT22;7790;53.022;12.968;2023-07-09T08:37:07;22.20;52.10
15384;DHT22;7790;53.022;12.968;2023-07-09T08:41:15;22.20;52.10
15384;DHT22;7790;53.022;12.968;2023-07-09T08:49:57;22.20;51.90
15384;DHT22;7790;53.022;12.968;2023-07-09T08:54:00;22.20;52.00
15384;DHT22;7790;53.022;12.968;2023-07-09T08:58:05;22.20;51.90
15384;DHT22;7790;53.022;12.968;2023-07-09T09:02:27;22.20;51.90
15384;DHT22;7790;53.022;12.968;2023-07-09T09:06:31;22.20;51.80
15384;DHT22;7790;53.022;12.968;2023-07-09T09:10:38;22.20;51.80
15384;DHT22;7790;53.022;12.968;2023-07-09T09:14:43;22.30;51.70
15384;DHT22;7790;53.022;12.968;2023-07-09T09:18:45;22.30;51.70
15384;DHT22;7790;53.022;12.968;2023-07-09T09:23:39;22.30;51.70
15384;DHT22;7790;53.022;12.968;2023-07-09T09:27:15;22.30;51.70
15384;DHT22;7790;53.022;12.968;2023-07-09T09:31:17;22.30;51.60
15384;DHT22;7790;53.022;12.968;2023-07-09T09:35:18;22.30;51.50
15384;DHT22;7790;53.022;12.968;2023-07-09T09:39:23;22.30;51.60
15384;DHT22;7790;53.022;12.968;2023-07-09T09:43:32;22.40;51.60
15384;DHT22;7790;53.022;12.968;2023-07-09T09:47:33;22.30;51.60
15384;DHT22;7790;53.022;12.968;2023-07-09T09:51:34;22.30;51.50
15384;DHT22;7790;53.022;12.968;2023-07-09T09:55:35;22.40;51.50
15384;DHT22;7790;53.022;12.968;2023-07-09T09:59:36;22.40;51.40
15384;DHT22;7790;53.022;12.968;2023-07-09T10:03:38;22.40;51.50
15384;DHT22;7790;53.022;12.968;2023-07-09T10:07:57;22.40;51.30
15384;DHT22;7790;53.022;12.968;2023-07-09T10:16:29;22.40;51.40
15384;DHT22;7790;53.022;12.968;2023-07-09T10:21:03;22.40;51.40
15384;DHT22;7790;53.022;12.968;2023-07-09T10:38:00;22.50;51.30
15384;DHT22;7790;53.022;12.968;2023-07-09T10:42:15;22.40;51.30
15384;DHT22;7790;53.022;12.968;2023-07-09T10:46:24;22.50;51.40
15384;DHT22;7790;53.022;12.968;2023-07-09T10:50:34;22.50;51.40
15384;DHT22;7790;53.022;12.968;2023-07-09T10:59:03;22.50;51.40
15384;DHT22;7790;53.022;12.968;2023-07-09T11:03:16;22.60;51.40
15384;DHT22;7790;53.022;12.968;2023-07-09T11:07:29;22.60;51.50
15384;DHT22;7790;53.022;12.968;2023-07-09T11:11:37;22.60;51.50
15384;DHT22;7790;53.022;12.968;2023-07-09T11:15:45;22.60;51.50
15384;DHT22;7790;53.022;12.968;2023-07-09T11:19:53;22.50;51.60
15384;DHT22;7790;53.022;12.968;2023-07-09T11:23:59;22.60;51.60
15384;DHT22;7790;53.022;12.968;2023-07-09T11:28:05;22.50;51.60
15384;DHT22;7790;53.022;12.968;2023-07-09T11:32:08;22.50;51.50
15384;DHT22;7790;53.022;12.968;2023-07-09T11:36:12;22.50;51.60
15384;DHT22;7790;53.022;12.968;2023-07-09T11:40:15;22.50;51.60
15384;DHT22;7790;53.022;12.968;2023-07-09T11:44:30;22.60;51.60
15384;DHT22;7790;53.022;12.968;2023-07-09T11:48:33;22.60;51.60
15384;DHT22;7790;53.022;12.968;2023-07-09T11:52:42;22.50;51.60
15384;DHT22;7790;53.022;12.968;2023-07-09T11:56:54;22.50;51.60
15384;DHT22;7790;53.022;12.968;2023-07-09T12:00:57;22.60;51.70
15384;DHT22;7790;53.022;12.968;2023-07-09T12:04:58;22.50;51.60
15384;DHT22;7790;53.022;12.968;2023-07-09T12:08:59;22.50;51.50
15384;DHT22;7790;53.022;12.968;2023-07-09T12:13:01;22.50;51.70
15384;DHT22;7790;53.022;12.968;2023-07-09T12:17:08;22.50;51.70
15384;DHT22;7790;53.022;12.968;2023-07-09T12:21:10;22.50;51.60
15384;DHT22;7790;53.022;12.968;2023-07-09T12:25:23;22.50;51.60
15384;DHT22;7790;53.022;12.968;2023-07-09T12:29:29;22.50;51.70
15384;DHT22;7790;53.022;12.968;2023-07-09T12:33:30;22.50;51.70
15384;DHT22;7790;53.022;12.968;2023-07-09T12:37:31;22.50;51.60
15384;DHT22;7790;53.022;12.968;2023-07-09T12:41:39;22.50;51.70
15384;DHT22;7790;53.022;12.968;2023-07-09T12:45:40;22.50;51.80
15384;DHT22;7790;53.022;12.968;2023-07-09T12:49:44;22.50;51.70
15384;DHT22;7790;53.022;12.968;2023-07-09T12:53:45;22.50;51.80
15384;DHT22;7790;53.022;12.968;2023-07-09T12:57:46;22.50;51.70
15384;DHT22;7790;53.022;12.968;2023-07-09T13:02:02;22.50;51.70
15384;DHT22;7790;53.022;12.968;2023-07-09T13:06:23;22.50;51.80
15384;DHT22;7790;53.022;12.968;2023-07-09T13:10:31;22.50;51.80
15384;DHT22;7790;53.022;12.968;2023-07-09T13:14:31;22.50;51.80
15384;DHT22;7790;53.022;12.968;2023-07-09T13:18:32;22.50;51.80
15384;DHT22;7790;53.022;12.968;2023-07-09T13:22:35;22.50;51.80
15384;DHT22;7790;53.022;12.968;2023-07-09T13:26:35;22.50;51.80
15384;DHT22;7790;53.022;12.968;2023-07-09T13:30:36;22.50;51.80
15384;DHT22;7790;53.022;12.968;2023-07-09T13:34:37;22.50;51.80
15384;DHT22;7790;53.022;12.968;2023-07-09T13:38:39;22.60;51.90
15384;DHT22;7790;53.022;12.968;2023-07-09T13:42:43;22.50;51.90
15384;DHT22;7790;53.022;12.968;2023-07-09T13:46:44;22.50;51.90
15384;DHT22;7790;53.022;12.968;2023-07-09T13:50:47;22.50;51.90
15384;DHT22;7790;53.022;12.968;2023-07-09T13:54:49;22.50;52.00
15384;DHT22;7790;53.022;12.968;2023-07-09T13:58:51;22.50;52.00
15384;DHT22;7790;53.022;12.968;2023-07-09T14:02:51;22.50;52.00
15384;DHT22;7790;53.022;12.968;2023-07-09T14:06:52;22.60;51.90
15384;DHT22;7790;53.022;12.968;2023-07-09T14:10:53;22.60;51.90
15384;DHT22;7790;53.022;12.968;2023-07-09T14:14:57;22.60;52.00
15384;DHT22;7790;53.022;12.968;2023-07-09T14:18:59;22.60;52.00
15384;DHT22;7790;53.022;12.968;2023-07-09T14:23:00;22.60;51.90
15384;DHT22;7790;53.022;12.968;2023-07-09T14:27:01;22.60;52.00
15384;DHT22;7790;53.022;12.968;2023-07-09T14:31:02;22.50;52.10
15384;DHT22;7790;53.022;12.968;2023-07-09T14:39:17;22.60;52.10
15384;DHT22;7790;53.022;12.968;2023-07-09T14:43:18;22.60;52.10
15384;DHT22;7790;53.022;12.968;2023-07-09T14:47:20;22.60;52.10
15384;DHT22;7790;53.022;12.968;2023-07-09T14:51:21;22.60;52.10
15384;DHT22;7790;53.022;12.968;2023-07-09T14:55:23;22.60;52.10
15384;DHT22;7790;53.022;12.968;2023-07-09T14:59:26;22.60;52.10
15384;DHT22;7790;53.022;12.968;2023-07-09T15:03:27;22.60;52.10
15384;DHT22;7790;53.022;12.968;2023-07-09T15:07:29;22.60;52.20
15384;DHT22;7790;53.022;12.968;2023-07-09T15:11:30;22.60;52.20
15384;DHT22;7790;53.022;12.968;2023-07-09T15:15:31;22.60;52.10
15384;DHT22;7790;53.022;12.968;2023-07-09T15:19:32;22.60;52.10
15384;DHT22;7790;53.022;12.968;2023-07-09T15:23:36;22.60;52.10
15384;DHT22;7790;53.022;12.968;2023-07-09T15:27:40;22.60;52.20
15384;DHT22;7790;53.022;12.968;2023-07-09T15:31:41;22.60;52.20
15384;DHT22;7790;53.022;12.968;2023-07-09T15:35:43;22.60;52.20
15384;DHT22;7790;53.022;12.968;2023-07-09T15:39:45;22.60;52.20
15384;DHT22;7790;53.022;12.968;2023-07-09T15:43:46;22.60;52.20
15384;DHT22;7790;53.022;12.968;2023-07-09T15:47:50;22.60;52.00
15384;DHT22;7790;53.022;12.968;2023-07-09T15:51:51;22.60;52.30
15384;DHT22;7790;53.022;12.968;2023-07-09T15:55:58;22.70;52.30
15384;DHT22;7790;53.022;12.968;2023-07-09T15:59:59;22.60;52.40
15384;DHT22;7790;53.022;12.968;2023-07-09T16:04:01;22.70;52.30
15384;DHT22;7790;53.022;12.968;2023-07-09T16:08:08;22.70;52.30
15384;DHT22;7790;53.022;12.968;2023-07-09T16:12:11;22.70;52.20
15384;DHT22;7790;53.022;12.968;2023-07-09T16:16:20;22.70;52.40
15384;DHT22;7790;53.022;12.968;2023-07-09T16:20:27;22.70;52.40
15384;DHT22;7790;53.022;12.968;2023-07-09T16:24:30;22.70;52.40
15384;DHT22;7790;53.022;12.968;2023-07-09T16:28:31;22.70;52.50
15384;DHT22;7790;53.022;12.968;2023-07-09T16:32:32;22.70;52.50
15384;DHT22;7790;53.022;12.968;2023-07-09T16:36:33;22.70;52.60
15384;DHT22;7790;53.022;12.968;2023-07-09T16:40:34;22.70;52.70
15384;DHT22;7790;53.022;12.968;2023-07-09T16:44:35;22.70;52.70
15384;DHT22;7790;53.022;12.968;2023-07-09T16:48:36;22.70;52.80
15384;DHT22;7790;53.022;12.968;2023-07-09T16:52:36;22.80;52.90
15384;DHT22;7790;53.022;12.968;2023-07-09T16:56:37;22.80;52.90
15384;DHT22;7790;53.022;12.968;2023-07-09T17:00:38;22.80;52.90
15384;DHT22;7790;53.022;12.968;2023-07-09T17:04:39;22.80;53.40
15384;DHT22;7790;53.022;12.968;2023-07-09T17:08:40;22.80;53.00
15384;DHT22;7790;53.022;12.968;2023-07-09T17:12:41;22.80;53.00
15384;DHT22;7790;53.022;12.968;2023-07-09T17:16:44;22.80;53.00
15384;DHT22;7790;53.022;12.968;2023-07-09T17:20:45;22.80;53.00
15384;DHT22;7790;53.022;12.968;2023-07-09T17:24:47;22.80;53.00
15384;DHT22;7790;53.022;12.968;2023-07-09T17:28:48;22.80;53.00
15384;DHT22;7790;53.022;12.968;2023-07-09T17:32:48;22.80;53.00
15384;DHT22;7790;53.022;12.968;2023-07-09T17:36:49;22.80;53.00
15384;DHT22;7790;53.022;12.968;2023-07-09T17:40:52;22.90;53.00
15384;DHT22;7790;53.022;12.968;2023-07-09T17:44:53;22.90;53.10
15384;DHT22;7790;53.022;12.968;2023-07-09T17:48:54;22.90;53.00
15384;DHT22;7790;53.022;12.968;2023-07-09T17:52:55;22.90;53.00
15384;DHT22;7790;53.022;12.968;2023-07-09T17:56:56;22.90;53.00
15384;DHT22;7790;53.022;12.968;2023-07-09T18:01:03;22.90;53.00
15384;DHT22;7790;53.022;12.968;2023-07-09T18:05:20;22.90;53.00
15384;DHT22;7790;53.022;12.968;2023-07-09T18:09:21;22.90;53.00
15384;DHT22;7790;53.022;12.968;2023-07-09T18:13:25;22.90;53.00
15384;DHT22;7790;53.022;12.968;2023-07-09T18:17:32;22.90;53.00
15384;DHT22;7790;53.022;12.968;2023-07-09T18:21:34;22.90;53.10
15384;DHT22;7790;53.022;12.968;2023-07-09T18:25:38;22.90;53.00
15384;DHT22;7790;53.022;12.968;2023-07-09T18:29:39;22.80;53.10
15384;DHT22;7790;53.022;12.968;2023-07-09T18:33:43;22.90;52.90
15384;DHT22;7790;53.022;12.968;2023-07-09T18:37:44;22.80;52.90
15384;DHT22;7790;53.022;12.968;2023-07-09T18:41:45;22.80;53.00
15384;DHT22;7790;53.022;12.968;2023-07-09T18:45:46;22.80;53.00
15384;DHT22;7790;53.022;12.968;2023-07-09T18:49:48;22.80;53.10
15384;DHT22;7790;53.022;12.968;2023-07-09T18:53:49;22.80;53.00
15384;DHT22;7790;53.022;12.968;2023-07-09T18:57:51;22.80;53.10
15384;DHT22;7790;53.022;12.968;2023-07-09T19:01:52;22.80;53.10
15384;DHT22;7790;53.022;12.968;2023-07-09T19:05:53;22.80;53.00
15384;DHT22;7790;53.022;12.968;2023-07-09T19:09:54;22.90;53.20
15384;DHT22;7790;53.022;12.968;2023-07-09T19:13:55;22.90;53.30
15384;DHT22;7790;53.022;12.968;2023-07-09T19:17:56;22.90;53.30
15384;DHT22;7790;53.022;12.968;2023-07-09T19:21:57;22.90;53.30
15384;DHT22;7790;53.022;12.968;2023-07-09T19:25:58;22.90;53.40
15384;DHT22;7790;53.022;12.968;2023-07-09T19:29:59;22.90;53.50
15384;DHT22;7790;53.022;12.968;2023-07-09T19:34:00;22.90;53.50
15384;DHT22;7790;53.022;12.968;2023-07-09T19:38:00;22.90;53.50
15384;DHT22;7790;53.022;12.968;2023-07-09T19:46:11;22.90;53.70
15384;DHT22;7790;53.022;12.968;2023-07-09T19:54:24;22.90;53.70
15384;DHT22;7790;53.022;12.968;2023-07-09T19:58:26;22.90;53.80
15384;DHT22;7790;53.022;12.968;2023-07-09T20:02:27;23.00;53.80
15384;DHT22;7790;53.022;12.968;2023-07-09T20:06:30;23.00;53.60
15384;DHT22;7790;53.022;12.968;2023-07-09T20:10:32;23.00;53.20
15384;DHT22;7790;53.022;12.968;2023-07-09T20:14:33;23.00;52.90
15384;DHT22;7790;53.022;12.968;2023-07-09T20:18:34;23.00;52.70
15384;DHT22;7790;53.022;12.968;2023-07-09T20:22:35;23.00;52.40
15384;DHT22;7790;53.022;12.968;2023-07-09T20:26:35;23.00;52.30
15384;DHT22;7790;53.022;12.968;2023-07-09T20:30:36;23.00;51.90
15384;DHT22;7790;53.022;12.968;2023-07-09T20:34:37;23.00;51.80
15384;DHT22;7790;53.022;12.968;2023-07-09T20:38:38;23.00;51.80
15384;DHT22;7790;53.022;12.968;2023-07-09T20:42:39;23.00;51.80
15384;DHT22;7790;53.022;12.968;2023-07-09T20:46:41;23.00;51.70
15384;DHT22;7790;53.022;12.968;2023-07-09T20:50:42;23.00;51.60
15384;DHT22;7790;53.022;12.968;2023-07-09T20:54:43;23.00;51.70
15384;DHT22;7790;53.022;12.968;2023-07-09T20:58:44;22.90;51.90
15384;DHT22;7790;53.022;12.968;2023-07-09T21:02:47;22.90;52.10
15384;DHT22;7790;53.022;12.968;2023-07-09T21:06:51;22.80;52.20
15384;DHT22;7790;53.022;12.968;2023-07-09T21:10:52;22.90;52.20
15384;DHT22;7790;53.022;12.968;2023-07-09T21:14:53;22.90;52.10
15384;DHT22;7790;53.022;12.968;2023-07-09T21:18:54;22.90;52.00
15384;DHT22;7790;53.022;12.968;2023-07-09T21:22:55;22.80;51.80
15384;DHT22;7790;53.022;12.968;2023-07-09T21:26:57;22.80;51.80
15384;DHT22;7790;53.022;12.968;2023-07-09T21:30:58;22.80;51.60
15384;DHT22;7790;53.022;12.968;2023-07-09T21:35:00;22.80;51.80
15384;DHT22;7790;53.022;12.968;2023-07-09T21:39:01;22.80;51.80
15384;DHT22;7790;53.022;12.968;2023-07-09T21:43:04;22.80;51.80
15384;DHT22;7790;53.022;12.968;2023-07-09T21:47:11;22.80;52.10
15384;DHT22;7790;53.022;12.968;2023-07-09T21:51:13;22.80;52.10
15384;DHT22;7790;53.022;12.968;2023-07-09T21:55:19;22.80;51.30
15384;DHT22;7790;53.022;12.968;2023-07-09T21:59:25;22.80;51.30
15384;DHT22;7790;53.022;12.968;2023-07-09T22:03:27;22.80;51.70
15384;DHT22;7790;53.022;12.968;2023-07-09T22:07:27;22.80;51.60
15384;DHT22;7790;53.022;12.968;2023-07-09T22:11:31;22.80;51.50
15384;DHT22;7790;53.022;12.968;2023-07-09T22:15:33;22.70;51.00
15384;DHT22;7790;53.022;12.968;2023-07-09T22:19:37;22.70;51.40
15384;DHT22;7790;53.022;12.968;2023-07-09T22:23:38;22.70;51.10
15384;DHT22;7790;53.022;12.968;2023-07-09T22:27:39;22.80;51.10
15384;DHT22;7790;53.022;12.968;2023-07-09T22:31:41;22.70;51.10
15384;DHT22;7790;53.022;12.968;2023-07-09T22:35:43;22.70;51.50
15384;DHT22;7790;53.022;12.968;2023-07-09T22:39:45;22.70;51.80
15384;DHT22;7790;53.022;12.968;2023-07-09T22:43:46;22.60;52.00
15384;DHT22;7790;53.022;12.968;2023-07-09T22:47:55;22.70;51.90
15384;DHT22;7790;53.022;12.968;2023-07-09T22:51:56;22.70;51.90
15384;DHT22;7790;53.022;12.968;2023-07-09T22:55:57;22.70;51.90
15384;DHT22;7790;53.022;12.968;2023-07-09T22:59:58;22.70;51.80
15384;DHT22;7790;53.022;12.968;2023-07-09T23:03:59;22.50;52.40
15384;DHT22;7790;53.022;12.968;2023-07-09T23:08:00;22.60;52.40
15384;DHT22;7790;53.022;12.968;2023-07-09T23:12:01;22.60;53.10
15384;DHT22;7790;53.022;12.968;2023-07-09T23:16:03;22.60;52.60
15384;DHT22;7790;53.022;12.968;2023-07-09T23:20:12;22.50;52.70
15384;DHT22;7790;53.022;12.968;2023-07-09T23:24:14;22.60;52.50
15384;DHT22;7790;53.022;12.968;2023-07-09T23:28:15;22.60;52.50
15384;DHT22;7790;53.022;12.968;2023-07-09T23:32:16;22.60;52.50
15384;DHT22;7790;53.022;12.968;2023-07-09T23:36:17;22.60;52.50
15384;DHT22;7790;53.022;12.968;2023-07-09T23:40:20;22.60;52.60
15384;DHT22;7790;53.022;12.968;2023-07-09T23:44:24;22.60;52.40
15384;DHT22;7790;53.022;12.968;2023-07-09T23:48:28;22.60;52.50
15384;DHT22;7790;53.022;12.968;2023-07-09T23:52:29;22.50;52.80
15384;DHT22;7790;53.022;12.968;2023-07-09T23:56:32;22.50;52.80
